createdAt,value
2022-10-26T00:01:27.906Z,55.30
2022-10-26T00:04:01.701Z,55.30
2022-10-26T00:06:35.613Z,55.40
2022-10-26T00:09:10.610Z,55.60
2022-10-26T00:11:44.242Z,55.80
2022-10-26T00:14:17.795Z,56.00
2022-10-26T00:16:51.424Z,56.00
2022-10-26T00:19:25.120Z,56.30
2022-10-26T00:21:58.764Z,56.60
2022-10-26T00:24:33.808Z,56.80
2022-10-26T00:27:07.445Z,56.70
2022-10-26T00:29:41.208Z,57.00
2022-10-26T00:32:14.836Z,57.60
2022-10-26T00:34:48.473Z,57.80
2022-10-26T00:37:22.148Z,57.60
2022-10-26T00:39:57.259Z,57.70
2022-10-26T00:42:30.868Z,57.70
2022-10-26T00:45:06.444Z,57.80
2022-10-26T00:47:42.743Z,57.70
2022-10-26T00:50:18.629Z,57.70
2022-10-26T00:52:52.828Z,57.70
2022-10-26T00:55:30.716Z,57.90
2022-10-26T00:58:05.798Z,58.10
2022-10-26T01:00:40.592Z,58.10
2022-10-26T01:03:14.286Z,57.80
2022-10-26T01:05:49.017Z,58.00
2022-10-26T01:08:23.034Z,58.00
2022-10-26T01:10:58.776Z,58.00
2022-10-26T01:13:36.020Z,58.00
2022-10-26T01:16:16.608Z,58.00
2022-10-26T01:18:54.610Z,58.10
2022-10-26T01:21:41.046Z,58.00
2022-10-26T01:24:33.871Z,58.00
2022-10-26T01:27:20.016Z,58.00
2022-10-26T01:30:17.842Z,58.10
2022-10-26T01:33:04.881Z,58.00
2022-10-26T01:35:41.248Z,57.90
2022-10-26T01:38:17.713Z,57.80
2022-10-26T01:40:55.828Z,57.90
2022-10-26T01:43:32.106Z,57.90
2022-10-26T01:46:08.019Z,57.80
2022-10-26T01:48:42.856Z,57.80
2022-10-26T01:51:16.613Z,57.90
2022-10-26T01:53:50.481Z,57.80
2022-10-26T01:56:25.759Z,57.70
2022-10-26T01:59:20.026Z,57.70
2022-10-26T02:02:15.711Z,57.60
2022-10-26T02:04:54.843Z,57.80
2022-10-26T02:07:32.674Z,57.80
2022-10-26T02:10:10.973Z,58.40
2022-10-26T02:12:46.785Z,57.90
2022-10-26T02:15:22.133Z,57.70
2022-10-26T02:18:00.569Z,57.70
2022-10-26T02:20:35.858Z,57.70
2022-10-26T02:23:10.258Z,57.70
2022-10-26T02:25:47.143Z,57.70
2022-10-26T02:28:22.946Z,57.60
2022-10-26T02:30:57.903Z,57.70
2022-10-26T02:33:34.682Z,57.80
2022-10-26T02:36:10.406Z,57.70
2022-10-26T02:38:44.236Z,57.60
2022-10-26T02:41:18.791Z,57.60
2022-10-26T02:43:54.285Z,57.80
2022-10-26T02:46:29.022Z,57.90
2022-10-26T02:49:05.061Z,58.00
2022-10-26T02:51:40.857Z,58.00
2022-10-26T02:54:16.194Z,58.10
2022-10-26T02:56:52.866Z,58.00
2022-10-26T02:59:29.416Z,58.10
2022-10-26T03:02:03.290Z,58.10
2022-10-26T03:04:38.292Z,58.10
2022-10-26T03:07:11.828Z,58.10
2022-10-26T03:09:45.365Z,58.20
2022-10-26T03:12:19.006Z,58.20
2022-10-26T03:14:52.514Z,58.10
2022-10-26T03:17:26.006Z,58.20
2022-10-26T03:20:00.977Z,58.30
2022-10-26T03:22:34.481Z,58.20
2022-10-26T03:27:47.095Z,58.20
2022-10-26T03:30:20.749Z,58.20
2022-10-26T03:32:54.272Z,58.30
2022-10-26T03:35:29.234Z,58.40
2022-10-26T03:38:02.843Z,58.40
2022-10-26T03:40:36.853Z,58.40
2022-10-26T03:43:10.335Z,58.50
2022-10-26T03:45:43.850Z,58.50
2022-10-26T03:48:17.393Z,58.60
2022-10-26T03:50:52.323Z,58.60
2022-10-26T03:53:25.930Z,58.50
2022-10-26T03:55:59.462Z,58.50
2022-10-26T03:58:33.034Z,58.40
2022-10-26T04:01:06.602Z,58.40
2022-10-26T04:03:40.215Z,58.40
2022-10-26T04:06:15.238Z,58.50
2022-10-26T04:08:48.797Z,58.50
2022-10-26T04:11:22.306Z,58.50
2022-10-26T04:13:55.939Z,58.50
2022-10-26T04:16:32.555Z,58.60
2022-10-26T04:19:07.071Z,58.50
2022-10-26T04:21:42.031Z,58.60
2022-10-26T04:24:16.410Z,58.60
2022-10-26T04:26:49.912Z,58.70
2022-10-26T04:29:23.466Z,58.70
2022-10-26T04:31:56.957Z,58.80
2022-10-26T04:34:30.514Z,58.80
2022-10-26T04:37:05.548Z,58.70
2022-10-26T04:39:39.166Z,58.70
2022-10-26T04:42:12.674Z,58.60
2022-10-26T04:44:46.160Z,58.70
2022-10-26T04:47:19.731Z,58.70
2022-10-26T04:49:53.236Z,58.70
2022-10-26T04:52:28.312Z,58.60
2022-10-26T04:55:01.879Z,58.70
2022-10-26T04:57:35.959Z,58.70
2022-10-26T05:00:10.317Z,58.70
2022-10-26T05:02:43.900Z,58.60
2022-10-26T05:05:17.772Z,58.40
2022-10-26T05:07:56.756Z,58.50
2022-10-26T05:10:30.261Z,58.30
2022-10-26T05:13:03.868Z,58.50
2022-10-26T05:15:37.453Z,58.30
2022-10-26T05:18:11.112Z,58.30
2022-10-26T05:20:45.361Z,58.60
2022-10-26T05:23:21.537Z,58.50
2022-10-26T05:25:56.704Z,58.40
2022-10-26T05:28:30.357Z,58.40
2022-10-26T05:31:03.928Z,58.40
2022-10-26T05:33:37.466Z,58.10
2022-10-26T05:36:11.026Z,58.10
2022-10-26T05:38:46.089Z,57.80
2022-10-26T05:41:19.665Z,57.50
2022-10-26T05:43:53.350Z,57.20
2022-10-26T05:46:27.612Z,56.90
2022-10-26T05:49:01.723Z,57.00
2022-10-26T05:51:37.571Z,57.10
2022-10-26T05:54:14.112Z,56.70
2022-10-26T05:56:48.344Z,56.40
2022-10-26T05:59:22.894Z,56.80
2022-10-26T06:02:04.898Z,56.60
2022-10-26T06:04:39.619Z,56.40
2022-10-26T06:07:14.240Z,56.50
2022-10-26T06:09:50.384Z,56.30
2022-10-26T06:12:26.282Z,56.20
2022-10-26T06:15:00.610Z,56.10
2022-10-26T06:17:41.980Z,55.70
2022-10-26T06:20:24.246Z,55.70
2022-10-26T06:23:05.271Z,55.70
2022-10-26T06:25:45.968Z,55.50
2022-10-26T06:28:26.958Z,55.30
2022-10-26T06:31:00.948Z,54.90
2022-10-26T06:33:35.335Z,55.20
2022-10-26T06:36:17.429Z,54.90
2022-10-26T06:38:52.399Z,54.60
2022-10-26T06:41:28.077Z,54.30
2022-10-26T06:44:02.645Z,54.20
2022-10-26T06:46:40.796Z,53.90
2022-10-26T06:49:18.989Z,53.40
2022-10-26T06:51:55.005Z,53.40
2022-10-26T06:54:32.993Z,53.30
2022-10-26T06:57:10.241Z,53.10
2022-10-26T06:59:45.700Z,51.30
2022-10-26T07:02:19.757Z,50.90
2022-10-26T07:04:54.087Z,49.40
2022-10-26T07:07:28.835Z,48.50
2022-10-26T07:10:02.867Z,48.80
2022-10-26T07:12:38.388Z,49.20
2022-10-26T07:15:12.629Z,49.20
2022-10-26T07:17:48.406Z,49.30
2022-10-26T07:20:22.892Z,49.60
2022-10-26T07:22:57.249Z,49.50
2022-10-26T07:25:31.146Z,50.20
2022-10-26T07:28:06.690Z,50.20
2022-10-26T07:30:41.650Z,49.80
2022-10-26T07:33:15.961Z,50.40
2022-10-26T07:35:49.701Z,50.50
2022-10-26T07:38:23.475Z,50.60
2022-10-26T07:40:57.541Z,50.20
2022-10-26T07:43:33.118Z,50.60
2022-10-26T07:46:07.430Z,50.50
2022-10-26T07:51:21.973Z,51.00
2022-10-26T07:53:56.126Z,51.00
2022-10-26T07:56:30.153Z,50.50
2022-10-26T07:59:05.394Z,50.40
2022-10-26T08:01:39.408Z,50.20
2022-10-26T08:04:13.680Z,50.80
2022-10-26T08:06:47.527Z,50.90
2022-10-26T08:09:21.907Z,50.70
2022-10-26T08:11:55.718Z,50.60
2022-10-26T08:14:31.104Z,50.70
2022-10-26T08:17:05.038Z,50.50
2022-10-26T08:19:39.087Z,50.60
2022-10-26T08:22:15.990Z,50.50
2022-10-26T08:24:50.009Z,50.70
2022-10-26T08:27:23.849Z,50.70
2022-10-26T08:29:58.949Z,50.80
2022-10-26T08:32:32.656Z,50.80
2022-10-26T08:35:06.659Z,50.50
2022-10-26T08:37:40.561Z,50.60
2022-10-26T08:40:17.166Z,50.50
2022-10-26T08:42:52.449Z,50.50
2022-10-26T08:45:33.017Z,50.80
2022-10-26T08:48:15.037Z,51.10
2022-10-26T08:50:50.864Z,51.30
2022-10-26T08:53:28.671Z,52.10
2022-10-26T08:56:05.819Z,52.30
2022-10-26T08:58:41.616Z,52.50
2022-10-26T09:01:17.195Z,52.60
2022-10-26T09:03:51.369Z,52.70
2022-10-26T09:06:27.854Z,52.80
2022-10-26T09:09:04.956Z,53.20
2022-10-26T09:11:45.211Z,53.20
2022-10-26T09:14:21.035Z,53.20
2022-10-26T09:17:02.548Z,53.20
2022-10-26T09:19:42.457Z,53.00
2022-10-26T09:22:18.939Z,53.50
2022-10-26T09:24:54.780Z,53.00
2022-10-26T09:27:29.341Z,52.80
2022-10-26T09:30:06.426Z,53.50
2022-10-26T09:32:44.754Z,53.80
2022-10-26T09:35:20.440Z,53.90
2022-10-26T09:37:56.652Z,54.30
2022-10-26T09:40:34.513Z,54.40
2022-10-26T09:43:12.088Z,54.30
2022-10-26T09:45:47.505Z,54.00
2022-10-26T09:48:27.134Z,54.00
2022-10-26T09:51:04.472Z,53.80
2022-10-26T09:53:39.081Z,54.40
2022-10-26T09:56:14.349Z,54.60
2022-10-26T09:58:49.962Z,54.30
2022-10-26T10:01:30.003Z,53.90
2022-10-26T10:04:20.336Z,54.00
2022-10-26T10:07:13.344Z,54.30
2022-10-26T10:10:00.720Z,55.00
2022-10-26T10:12:34.759Z,55.20
2022-10-26T10:15:18.494Z,55.20
2022-10-26T10:17:53.413Z,55.20
2022-10-26T10:20:29.021Z,55.20
2022-10-26T10:23:04.957Z,54.40
2022-10-26T10:25:40.146Z,54.10
2022-10-26T10:28:22.617Z,53.90
2022-10-26T10:30:59.561Z,54.00
2022-10-26T10:33:34.207Z,54.30
2022-10-26T10:36:10.385Z,54.00
2022-10-26T10:38:46.728Z,53.80
2022-10-26T10:41:23.058Z,53.50
2022-10-26T10:44:01.798Z,53.20
2022-10-26T10:46:37.786Z,52.80
2022-10-26T10:49:19.801Z,52.70
2022-10-26T10:51:53.844Z,52.60
2022-10-26T10:54:32.221Z,52.50
2022-10-26T10:57:13.007Z,52.40
2022-10-26T10:59:51.511Z,51.90
2022-10-26T11:02:43.789Z,52.00
2022-10-26T11:05:35.163Z,51.90
2022-10-26T11:08:10.481Z,51.80
2022-10-26T11:10:48.065Z,51.50
2022-10-26T11:13:23.346Z,51.60
2022-10-26T11:16:01.017Z,51.20
2022-10-26T11:18:36.568Z,51.30
2022-10-26T11:21:17.031Z,51.50
2022-10-26T11:23:51.912Z,51.60
2022-10-26T11:26:31.515Z,51.40
2022-10-26T11:29:07.506Z,51.20
2022-10-26T11:31:43.693Z,51.30
2022-10-26T11:34:22.700Z,51.00
2022-10-26T11:36:58.722Z,50.70
2022-10-26T11:39:36.006Z,50.80
2022-10-26T11:42:17.454Z,50.60
2022-10-26T11:44:53.626Z,50.50
2022-10-26T11:47:35.293Z,50.60
2022-10-26T11:50:17.514Z,50.50
2022-10-26T11:52:54.003Z,50.60
2022-10-26T11:55:28.150Z,50.40
2022-10-26T11:58:05.102Z,49.80
2022-10-26T12:00:42.324Z,50.40
2022-10-26T12:03:18.394Z,49.90
2022-10-26T12:05:53.047Z,49.90
2022-10-26T12:08:29.566Z,50.10
2022-10-26T12:13:47.507Z,50.20
2022-10-26T12:16:23.693Z,49.60
2022-10-26T12:19:00.807Z,49.80
2022-10-26T12:21:35.311Z,49.70
2022-10-26T12:24:24.290Z,50.00
2022-10-26T12:26:58.661Z,49.50
2022-10-26T12:29:37.158Z,49.50
2022-10-26T12:32:29.955Z,49.10
2022-10-26T12:35:04.967Z,49.00
2022-10-26T12:37:39.087Z,49.40
2022-10-26T12:40:31.215Z,49.70
2022-10-26T12:43:19.513Z,49.10
2022-10-26T12:46:07.810Z,48.80
2022-10-26T12:48:43.407Z,49.40
2022-10-26T12:51:40.601Z,48.90
2022-10-26T12:54:22.808Z,49.10
2022-10-26T12:56:57.056Z,49.50
2022-10-26T12:59:36.155Z,49.00
2022-10-26T13:02:36.945Z,49.30
2022-10-26T13:05:28.359Z,48.80
2022-10-26T13:08:04.640Z,48.80
2022-10-26T13:10:39.485Z,48.90
2022-10-26T13:13:22.847Z,48.90
2022-10-26T13:15:57.369Z,48.70
2022-10-26T13:18:31.506Z,49.00
2022-10-26T13:21:07.891Z,49.00
2022-10-26T13:23:44.467Z,48.70
2022-10-26T13:26:19.147Z,49.30
2022-10-26T13:28:53.736Z,48.90
2022-10-26T13:31:46.128Z,49.20
2022-10-26T13:34:21.536Z,49.40
2022-10-26T13:37:00.870Z,49.20
2022-10-26T13:39:37.356Z,49.20
2022-10-26T13:42:15.309Z,49.50
2022-10-26T13:44:51.759Z,49.50
2022-10-26T13:47:28.535Z,49.70
2022-10-26T13:50:05.766Z,49.80
2022-10-26T13:52:41.231Z,49.80
2022-10-26T13:55:20.816Z,50.00
2022-10-26T13:58:03.945Z,50.00
2022-10-26T14:00:37.919Z,50.00
2022-10-26T14:03:15.390Z,50.00
2022-10-26T14:05:51.567Z,50.10
2022-10-26T14:08:25.293Z,49.70
2022-10-26T14:11:00.728Z,50.00
2022-10-26T14:13:38.019Z,50.10
2022-10-26T14:16:18.365Z,50.10
2022-10-26T14:18:52.175Z,49.60
2022-10-26T14:21:25.967Z,49.70
2022-10-26T14:24:00.134Z,49.50
2022-10-26T14:26:41.318Z,49.60
2022-10-26T14:29:17.003Z,49.60
2022-10-26T14:31:50.783Z,49.40
2022-10-26T14:34:24.825Z,49.60
2022-10-26T14:37:00.834Z,49.00
2022-10-26T14:39:35.853Z,49.40
2022-10-26T14:42:15.115Z,49.10
2022-10-26T14:44:48.765Z,49.20
2022-10-26T14:47:25.050Z,49.30
2022-10-26T14:52:38.253Z,49.30
2022-10-26T14:55:14.792Z,49.40
2022-10-26T14:57:51.260Z,49.50
2022-10-26T15:00:25.795Z,49.60
2022-10-26T15:02:59.699Z,49.60
2022-10-26T15:05:36.391Z,49.60
2022-10-26T15:08:33.731Z,49.60
2022-10-26T15:11:18.425Z,49.60
2022-10-26T15:13:53.914Z,49.70
2022-10-26T15:16:29.090Z,49.70
2022-10-26T15:19:09.244Z,49.70
2022-10-26T15:21:47.018Z,49.70
2022-10-26T15:24:27.056Z,49.60
2022-10-26T15:27:01.297Z,49.70
2022-10-26T15:29:37.325Z,49.60
2022-10-26T15:32:21.447Z,49.50
2022-10-26T15:35:13.933Z,49.60
2022-10-26T15:37:47.841Z,49.40
2022-10-26T15:40:22.031Z,49.40
2022-10-26T15:42:56.351Z,49.40
2022-10-26T15:45:33.316Z,49.40
2022-10-26T15:48:20.947Z,49.50
2022-10-26T15:50:54.633Z,49.20
2022-10-26T15:53:28.738Z,49.20
2022-10-26T15:56:02.351Z,49.10
2022-10-26T15:58:35.866Z,49.00
2022-10-26T16:01:11.733Z,49.30
2022-10-26T16:03:45.355Z,49.10
2022-10-26T16:06:19.785Z,49.10
2022-10-26T16:08:53.968Z,49.10
2022-10-26T16:11:27.698Z,48.90
2022-10-26T16:14:03.710Z,49.00
2022-10-26T16:16:39.154Z,49.00
2022-10-26T16:22:06.494Z,48.90
2022-10-26T16:24:40.171Z,49.00
2022-10-26T16:27:13.895Z,49.10
2022-10-26T16:29:47.587Z,49.10
2022-10-26T16:32:22.534Z,49.10
2022-10-26T16:34:56.209Z,49.40
2022-10-26T16:37:29.921Z,49.40
2022-10-26T16:40:03.700Z,49.60
2022-10-26T16:42:37.300Z,49.70
2022-10-26T16:45:11.292Z,49.70
2022-10-26T16:47:46.257Z,49.60
2022-10-26T16:50:22.186Z,49.70
2022-10-26T16:52:55.748Z,50.20
2022-10-26T16:55:29.270Z,50.10
2022-10-26T16:58:02.837Z,50.40
2022-10-26T17:00:36.730Z,49.60
2022-10-26T17:03:11.691Z,49.50
2022-10-26T17:05:45.295Z,49.40
2022-10-26T17:08:18.880Z,49.50
2022-10-26T17:10:52.614Z,49.70
2022-10-26T17:13:26.692Z,50.00
2022-10-26T17:16:02.506Z,50.10
2022-10-26T17:18:37.615Z,50.20
2022-10-26T17:21:11.427Z,50.20
2022-10-26T17:23:45.127Z,50.20
2022-10-26T17:26:18.790Z,50.20
2022-10-26T17:28:52.618Z,50.10
2022-10-26T17:31:26.671Z,50.10
2022-10-26T17:34:02.457Z,50.10
2022-10-26T17:36:36.513Z,50.10
2022-10-26T17:39:10.570Z,50.20
2022-10-26T17:41:44.425Z,50.20
2022-10-26T17:44:18.037Z,50.10
2022-10-26T17:46:51.666Z,50.30
2022-10-26T17:49:28.030Z,50.20
2022-10-26T17:52:02.948Z,50.10
2022-10-26T17:54:36.597Z,50.20
2022-10-26T17:57:10.513Z,50.10
2022-10-26T17:59:44.452Z,50.20
2022-10-26T18:02:18.197Z,50.20
2022-10-26T18:04:53.330Z,50.40
2022-10-26T18:07:26.998Z,50.70
2022-10-26T18:10:13.708Z,50.70
2022-10-26T18:12:54.319Z,50.70
2022-10-26T18:15:28.330Z,50.40
2022-10-26T18:18:02.060Z,50.40
2022-10-26T18:20:37.113Z,50.70
2022-10-26T18:23:10.702Z,50.70
2022-10-26T18:25:44.341Z,50.70
2022-10-26T18:28:17.933Z,50.70
2022-10-26T18:30:51.527Z,50.60
2022-10-26T18:33:25.127Z,50.60
2022-10-26T18:36:04.536Z,50.60
2022-10-26T18:38:38.223Z,50.60
2022-10-26T18:41:12.769Z,50.60
2022-10-26T18:43:48.708Z,50.90
2022-10-26T18:46:24.169Z,50.70
2022-10-26T18:48:58.203Z,50.80
2022-10-26T18:51:34.272Z,50.80
2022-10-26T18:54:07.834Z,50.80
2022-10-26T18:56:41.333Z,50.90
2022-10-26T18:59:14.876Z,50.90
2022-10-26T19:01:50.343Z,50.90
2022-10-26T19:04:24.162Z,50.90
2022-10-26T19:06:59.475Z,51.00
2022-10-26T19:09:33.219Z,50.90
2022-10-26T19:12:07.057Z,50.90
2022-10-26T19:14:41.113Z,50.90
2022-10-26T19:17:14.845Z,50.90
2022-10-26T19:19:48.545Z,50.90
2022-10-26T19:22:23.657Z,50.90
2022-10-26T19:24:57.321Z,51.20
2022-10-26T19:27:30.982Z,51.00
2022-10-26T19:30:04.773Z,51.10
2022-10-26T19:32:38.400Z,51.00
2022-10-26T19:35:12.332Z,51.00
2022-10-26T19:37:47.566Z,51.00
2022-10-26T19:40:21.281Z,51.10
2022-10-26T19:42:55.032Z,51.10
2022-10-26T19:45:29.187Z,51.00
2022-10-26T19:48:03.125Z,51.00
2022-10-26T19:50:37.010Z,51.30
2022-10-26T19:53:12.271Z,51.20
2022-10-26T19:55:46.735Z,51.20
2022-10-26T19:58:20.977Z,51.40
2022-10-26T20:00:56.781Z,51.90
2022-10-26T20:03:30.995Z,51.40
2022-10-26T20:06:08.207Z,51.40
2022-10-26T20:08:44.481Z,51.30
2022-10-26T20:11:18.784Z,51.40
2022-10-26T20:13:52.800Z,51.80
2022-10-26T20:16:26.506Z,51.80
2022-10-26T20:19:01.922Z,51.90
2022-10-26T20:21:35.523Z,51.90
2022-10-26T20:24:10.871Z,51.90
2022-10-26T20:26:44.591Z,51.90
2022-10-26T20:29:18.233Z,52.00
2022-10-26T20:31:55.936Z,51.90
2022-10-26T20:34:29.993Z,52.00
2022-10-26T20:37:03.759Z,51.90
2022-10-26T20:39:39.391Z,51.90
2022-10-26T20:42:21.841Z,51.90
2022-10-26T20:44:59.132Z,51.90
2022-10-26T20:47:33.090Z,51.80
2022-10-26T20:50:07.323Z,51.70
2022-10-26T20:52:45.568Z,51.70
2022-10-26T20:55:24.803Z,51.80
2022-10-26T20:58:01.777Z,51.80
2022-10-26T21:00:40.408Z,51.90
2022-10-26T21:03:14.065Z,51.70
2022-10-26T21:05:48.443Z,51.80
2022-10-26T21:08:22.275Z,52.00
2022-10-26T21:10:57.470Z,52.00
2022-10-26T21:13:31.111Z,51.80
2022-10-26T21:16:05.196Z,52.00
2022-10-26T21:18:39.254Z,51.90
2022-10-26T21:21:13.028Z,51.90
2022-10-26T21:23:46.669Z,52.10
2022-10-26T21:26:22.047Z,51.90
2022-10-26T21:28:55.945Z,51.90
2022-10-26T21:31:29.716Z,51.90
2022-10-26T21:34:03.686Z,51.90
2022-10-26T21:36:37.696Z,51.70
2022-10-26T21:39:11.691Z,51.60
2022-10-26T21:41:48.312Z,51.90
2022-10-26T21:44:38.729Z,51.70
2022-10-26T21:47:14.138Z,51.70
2022-10-26T21:49:47.942Z,51.90
2022-10-26T21:52:21.710Z,51.90
2022-10-26T21:54:55.552Z,51.90
2022-10-26T21:57:30.623Z,51.70
2022-10-26T22:00:05.052Z,51.90
2022-10-26T22:02:46.932Z,51.60
2022-10-26T22:05:20.704Z,51.70
2022-10-26T22:07:54.644Z,51.50
2022-10-26T22:10:28.457Z,51.50
2022-10-26T22:13:03.729Z,51.70
2022-10-26T22:15:37.749Z,51.80
2022-10-26T22:18:11.467Z,51.80
2022-10-26T22:20:45.088Z,51.90
2022-10-26T22:23:18.672Z,52.10
2022-10-26T22:25:52.476Z,52.20
2022-10-26T22:28:27.562Z,52.30
2022-10-26T22:31:02.616Z,53.00
2022-10-26T22:33:36.671Z,53.50
2022-10-26T22:36:11.729Z,53.60
2022-10-26T22:38:45.544Z,53.80
2022-10-26T22:41:19.563Z,54.10
2022-10-26T22:43:54.519Z,54.20
2022-10-26T22:46:28.798Z,54.30
2022-10-26T22:49:03.123Z,54.30
2022-10-26T22:51:36.656Z,54.30
2022-10-26T22:54:10.277Z,54.30
2022-10-26T22:56:43.850Z,54.40
2022-10-26T22:59:18.929Z,54.80
2022-10-26T23:01:52.782Z,54.90
2022-10-26T23:04:26.416Z,55.00
2022-10-26T23:06:59.933Z,55.20
2022-10-26T23:09:33.445Z,55.40
2022-10-26T23:12:07.053Z,55.40
2022-10-26T23:14:42.046Z,55.20
2022-10-26T23:17:15.577Z,55.30
2022-10-26T23:19:49.151Z,55.20
2022-10-26T23:22:22.702Z,55.30
2022-10-26T23:24:56.296Z,55.70
2022-10-26T23:27:30.042Z,55.80
2022-10-26T23:30:05.257Z,56.00
2022-10-26T23:32:38.874Z,56.20
2022-10-26T23:35:12.498Z,56.20
2022-10-26T23:37:46.141Z,56.30
2022-10-26T23:40:19.892Z,56.50
2022-10-26T23:42:53.790Z,56.50
2022-10-26T23:45:28.951Z,56.60
2022-10-26T23:48:02.532Z,56.70
2022-10-26T23:50:36.191Z,56.80
2022-10-26T23:53:09.780Z,56.90
2022-10-26T23:55:44.571Z,56.90
2022-10-26T23:58:18.847Z,57.00
